sensor_id;sensor_type;location;lat;lon;timestamp;P1;durP1;ratioP1;P2;durP2;ratioP2
38089;SDS011;23904;52.322;10.232;2023-05-07T00:01:05;34.58;;;24.52;;
38089;SDS011;23904;52.322;10.232;2023-05-07T00:03:31;34.88;;;25.77;;
38089;SDS011;23904;52.322;10.232;2023-05-07T00:05:57;36.55;;;26.90;;
38089;SDS011;23904;52.322;10.232;2023-05-07T00:08:23;39.85;;;26.67;;
38089;SDS011;23904;52.322;10.232;2023-05-07T00:10:49;36.05;;;25.80;;
38089;SDS011;23904;52.322;10.232;2023-05-07T00:13:14;38.03;;;27.15;;
38089;SDS011;23904;52.322;10.232;2023-05-07T00:15:41;34.75;;;25.45;;
38089;SDS011;23904;52.322;10.232;2023-05-07T00:18:07;36.17;;;26.20;;
38089;SDS011;23904;52.322;10.232;2023-05-07T00:20:32;38.42;;;27.38;;
38089;SDS011;23904;52.322;10.232;2023-05-07T00:22:58;39.38;;;28.45;;
38089;SDS011;23904;52.322;10.232;2023-05-07T00:25:23;40.00;;;27.38;;
38089;SDS011;23904;52.322;10.232;2023-05-07T00:27:49;38.92;;;26.77;;
38089;SDS011;23904;52.322;10.232;2023-05-07T00:30:14;41.22;;;28.85;;
38089;SDS011;23904;52.322;10.232;2023-05-07T00:32:40;35.72;;;26.23;;
38089;SDS011;23904;52.322;10.232;2023-05-07T00:35:06;36.60;;;25.77;;
38089;SDS011;23904;52.322;10.232;2023-05-07T00:37:33;40.17;;;27.30;;
38089;SDS011;23904;52.322;10.232;2023-05-07T00:39:58;42.80;;;27.73;;
38089;SDS011;23904;52.322;10.232;2023-05-07T00:42:24;39.08;;;26.73;;
38089;SDS011;23904;52.322;10.232;2023-05-07T00:44:49;37.38;;;26.42;;
38089;SDS011;23904;52.322;10.232;2023-05-07T00:47:15;42.42;;;29.30;;
38089;SDS011;23904;52.322;10.232;2023-05-07T00:49:42;39.05;;;26.60;;
38089;SDS011;23904;52.322;10.232;2023-05-07T00:52:13;39.90;;;27.00;;
38089;SDS011;23904;52.322;10.232;2023-05-07T00:54:41;41.92;;;28.10;;
38089;SDS011;23904;52.322;10.232;2023-05-07T00:57:07;38.38;;;24.52;;
38089;SDS011;23904;52.322;10.232;2023-05-07T00:59:36;36.33;;;25.25;;
38089;SDS011;23904;52.322;10.232;2023-05-07T01:02:03;39.95;;;26.65;;
38089;SDS011;23904;52.322;10.232;2023-05-07T01:04:28;39.05;;;26.23;;
38089;SDS011;23904;52.322;10.232;2023-05-07T01:06:54;38.30;;;26.63;;
38089;SDS011;23904;52.322;10.232;2023-05-07T01:09:21;34.88;;;26.27;;
38089;SDS011;23904;52.322;10.232;2023-05-07T01:11:49;37.40;;;24.63;;
38089;SDS011;23904;52.322;10.232;2023-05-07T01:14:16;35.55;;;23.77;;
38089;SDS011;23904;52.322;10.232;2023-05-07T01:16:42;28.85;;;21.70;;
38089;SDS011;23904;52.322;10.232;2023-05-07T01:19:08;25.08;;;18.33;;
38089;SDS011;23904;52.322;10.232;2023-05-07T01:21:38;29.65;;;20.98;;
38089;SDS011;23904;52.322;10.232;2023-05-07T01:24:12;27.92;;;20.20;;
38089;SDS011;23904;52.322;10.232;2023-05-07T01:26:39;23.73;;;16.85;;
38089;SDS011;23904;52.322;10.232;2023-05-07T01:29:04;22.30;;;15.95;;
38089;SDS011;23904;52.322;10.232;2023-05-07T01:31:30;23.73;;;16.30;;
38089;SDS011;23904;52.322;10.232;2023-05-07T01:33:58;21.55;;;16.33;;
38089;SDS011;23904;52.322;10.232;2023-05-07T01:36:26;25.05;;;16.38;;
38089;SDS011;23904;52.322;10.232;2023-05-07T01:38:55;22.38;;;16.05;;
38089;SDS011;23904;52.322;10.232;2023-05-07T01:41:22;18.83;;;13.93;;
38089;SDS011;23904;52.322;10.232;2023-05-07T01:43:48;20.92;;;13.65;;
38089;SDS011;23904;52.322;10.232;2023-05-07T01:46:17;21.50;;;13.98;;
38089;SDS011;23904;52.322;10.232;2023-05-07T01:48:44;22.08;;;15.07;;
38089;SDS011;23904;52.322;10.232;2023-05-07T01:51:11;22.35;;;14.98;;
38089;SDS011;23904;52.322;10.232;2023-05-07T01:53:37;22.13;;;16.33;;
38089;SDS011;23904;52.322;10.232;2023-05-07T01:56:04;23.13;;;16.63;;
38089;SDS011;23904;52.322;10.232;2023-05-07T01:58:30;23.77;;;16.52;;
38089;SDS011;23904;52.322;10.232;2023-05-07T02:00:56;24.35;;;16.92;;
38089;SDS011;23904;52.322;10.232;2023-05-07T02:03:21;25.77;;;15.88;;
38089;SDS011;23904;52.322;10.232;2023-05-07T02:05:47;23.20;;;15.73;;
38089;SDS011;23904;52.322;10.232;2023-05-07T02:08:12;25.17;;;16.02;;
38089;SDS011;23904;52.322;10.232;2023-05-07T02:10:38;22.48;;;15.48;;
38089;SDS011;23904;52.322;10.232;2023-05-07T02:13:04;18.80;;;13.40;;
38089;SDS011;23904;52.322;10.232;2023-05-07T02:15:29;21.45;;;13.85;;
38089;SDS011;23904;52.322;10.232;2023-05-07T02:18:05;19.27;;;12.75;;
38089;SDS011;23904;52.322;10.232;2023-05-07T02:20:33;20.58;;;14.07;;
38089;SDS011;23904;52.322;10.232;2023-05-07T02:22:59;27.02;;;17.48;;
38089;SDS011;23904;52.322;10.232;2023-05-07T02:25:25;25.13;;;16.80;;
38089;SDS011;23904;52.322;10.232;2023-05-07T02:27:51;23.75;;;16.60;;
38089;SDS011;23904;52.322;10.232;2023-05-07T02:30:16;23.48;;;16.42;;
38089;SDS011;23904;52.322;10.232;2023-05-07T02:32:42;23.05;;;16.27;;
38089;SDS011;23904;52.322;10.232;2023-05-07T02:35:08;27.08;;;18.33;;
38089;SDS011;23904;52.322;10.232;2023-05-07T02:37:33;23.77;;;17.08;;
38089;SDS011;23904;52.322;10.232;2023-05-07T02:39:59;24.40;;;16.65;;
38089;SDS011;23904;52.322;10.232;2023-05-07T02:42:24;23.55;;;16.88;;
38089;SDS011;23904;52.322;10.232;2023-05-07T02:44:50;25.10;;;16.70;;
38089;SDS011;23904;52.322;10.232;2023-05-07T02:47:15;24.75;;;16.63;;
38089;SDS011;23904;52.322;10.232;2023-05-07T02:49:41;21.40;;;15.85;;
38089;SDS011;23904;52.322;10.232;2023-05-07T02:52:07;22.92;;;14.70;;
38089;SDS011;23904;52.322;10.232;2023-05-07T02:54:33;19.55;;;14.98;;
38089;SDS011;23904;52.322;10.232;2023-05-07T02:56:58;22.65;;;15.73;;
38089;SDS011;23904;52.322;10.232;2023-05-07T02:59:25;21.08;;;15.25;;
38089;SDS011;23904;52.322;10.232;2023-05-07T03:01:51;21.33;;;14.27;;
38089;SDS011;23904;52.322;10.232;2023-05-07T03:04:17;16.88;;;13.20;;
38089;SDS011;23904;52.322;10.232;2023-05-07T03:06:42;17.88;;;13.18;;
38089;SDS011;23904;52.322;10.232;2023-05-07T03:09:08;18.15;;;13.48;;
38089;SDS011;23904;52.322;10.232;2023-05-07T03:11:33;19.30;;;13.40;;
38089;SDS011;23904;52.322;10.232;2023-05-07T03:14:00;18.60;;;12.68;;
38089;SDS011;23904;52.322;10.232;2023-05-07T03:16:26;20.05;;;13.73;;
38089;SDS011;23904;52.322;10.232;2023-05-07T03:18:52;19.40;;;14.45;;
38089;SDS011;23904;52.322;10.232;2023-05-07T03:21:17;19.88;;;13.32;;
38089;SDS011;23904;52.322;10.232;2023-05-07T03:23:43;16.52;;;12.13;;
38089;SDS011;23904;52.322;10.232;2023-05-07T03:26:08;19.55;;;13.80;;
38089;SDS011;23904;52.322;10.232;2023-05-07T03:28:34;17.23;;;12.75;;
38089;SDS011;23904;52.322;10.232;2023-05-07T03:31:00;20.80;;;14.50;;
38089;SDS011;23904;52.322;10.232;2023-05-07T03:33:25;21.70;;;14.07;;
38089;SDS011;23904;52.322;10.232;2023-05-07T03:35:52;19.10;;;14.27;;
38089;SDS011;23904;52.322;10.232;2023-05-07T03:38:17;20.20;;;14.80;;
38089;SDS011;23904;52.322;10.232;2023-05-07T03:40:43;20.30;;;15.00;;
38089;SDS011;23904;52.322;10.232;2023-05-07T03:43:09;19.65;;;14.20;;
38089;SDS011;23904;52.322;10.232;2023-05-07T03:45:34;18.67;;;13.13;;
38089;SDS011;23904;52.322;10.232;2023-05-07T03:48:00;20.17;;;13.68;;
38089;SDS011;23904;52.322;10.232;2023-05-07T03:50:25;20.95;;;14.43;;
38089;SDS011;23904;52.322;10.232;2023-05-07T03:52:51;19.98;;;13.45;;
38089;SDS011;23904;52.322;10.232;2023-05-07T03:55:16;19.67;;;14.48;;
38089;SDS011;23904;52.322;10.232;2023-05-07T03:57:42;18.52;;;14.43;;
38089;SDS011;23904;52.322;10.232;2023-05-07T04:00:08;21.90;;;15.57;;
38089;SDS011;23904;52.322;10.232;2023-05-07T04:02:34;20.27;;;14.70;;
38089;SDS011;23904;52.322;10.232;2023-05-07T04:05:00;18.23;;;14.20;;
38089;SDS011;23904;52.322;10.232;2023-05-07T04:07:26;20.98;;;15.15;;
38089;SDS011;23904;52.322;10.232;2023-05-07T04:09:51;21.23;;;14.50;;
38089;SDS011;23904;52.322;10.232;2023-05-07T04:12:17;19.27;;;14.45;;
38089;SDS011;23904;52.322;10.232;2023-05-07T04:14:42;20.15;;;14.18;;
38089;SDS011;23904;52.322;10.232;2023-05-07T04:17:08;20.15;;;14.57;;
38089;SDS011;23904;52.322;10.232;2023-05-07T04:19:34;16.80;;;13.52;;
38089;SDS011;23904;52.322;10.232;2023-05-07T04:22:00;18.15;;;13.85;;
38089;SDS011;23904;52.322;10.232;2023-05-07T04:24:26;15.65;;;12.32;;
38089;SDS011;23904;52.322;10.232;2023-05-07T04:26:51;18.27;;;12.15;;
38089;SDS011;23904;52.322;10.232;2023-05-07T04:29:17;14.40;;;10.50;;
38089;SDS011;23904;52.322;10.232;2023-05-07T04:31:43;15.50;;;11.45;;
38089;SDS011;23904;52.322;10.232;2023-05-07T04:34:10;16.48;;;11.20;;
38089;SDS011;23904;52.322;10.232;2023-05-07T04:36:37;14.13;;;10.68;;
38089;SDS011;23904;52.322;10.232;2023-05-07T04:39:03;15.75;;;11.35;;
38089;SDS011;23904;52.322;10.232;2023-05-07T04:41:29;15.43;;;10.77;;
38089;SDS011;23904;52.322;10.232;2023-05-07T04:43:55;16.13;;;11.30;;
38089;SDS011;23904;52.322;10.232;2023-05-07T04:46:21;14.98;;;11.40;;
38089;SDS011;23904;52.322;10.232;2023-05-07T04:48:47;14.35;;;10.93;;
38089;SDS011;23904;52.322;10.232;2023-05-07T04:51:12;15.32;;;10.60;;
38089;SDS011;23904;52.322;10.232;2023-05-07T04:53:38;13.95;;;10.55;;
38089;SDS011;23904;52.322;10.232;2023-05-07T04:56:03;16.52;;;11.38;;
38089;SDS011;23904;52.322;10.232;2023-05-07T04:58:29;15.75;;;11.93;;
38089;SDS011;23904;52.322;10.232;2023-05-07T05:00:57;19.52;;;11.02;;
38089;SDS011;23904;52.322;10.232;2023-05-07T05:03:23;14.52;;;11.70;;
38089;SDS011;23904;52.322;10.232;2023-05-07T05:05:49;13.73;;;10.95;;
38089;SDS011;23904;52.322;10.232;2023-05-07T05:08:17;14.88;;;11.13;;
38089;SDS011;23904;52.322;10.232;2023-05-07T05:10:42;15.82;;;11.23;;
38089;SDS011;23904;52.322;10.232;2023-05-07T05:13:08;14.70;;;10.15;;
38089;SDS011;23904;52.322;10.232;2023-05-07T05:15:34;19.23;;;11.60;;
38089;SDS011;23904;52.322;10.232;2023-05-07T05:18:00;15.45;;;11.15;;
38089;SDS011;23904;52.322;10.232;2023-05-07T05:20:26;13.27;;;11.45;;
38089;SDS011;23904;52.322;10.232;2023-05-07T05:22:51;14.15;;;11.48;;
38089;SDS011;23904;52.322;10.232;2023-05-07T05:25:17;14.93;;;11.38;;
38089;SDS011;23904;52.322;10.232;2023-05-07T05:27:43;18.95;;;12.18;;
38089;SDS011;23904;52.322;10.232;2023-05-07T05:30:08;14.90;;;12.05;;
38089;SDS011;23904;52.322;10.232;2023-05-07T05:32:35;14.23;;;11.00;;
38089;SDS011;23904;52.322;10.232;2023-05-07T05:35:00;11.75;;;10.00;;
38089;SDS011;23904;52.322;10.232;2023-05-07T05:37:26;15.80;;;10.57;;
38089;SDS011;23904;52.322;10.232;2023-05-07T05:39:52;11.75;;;9.95;;
38089;SDS011;23904;52.322;10.232;2023-05-07T05:42:19;14.15;;;10.77;;
38089;SDS011;23904;52.322;10.232;2023-05-07T05:44:45;11.85;;;10.07;;
38089;SDS011;23904;52.322;10.232;2023-05-07T05:47:10;15.93;;;10.90;;
38089;SDS011;23904;52.322;10.232;2023-05-07T05:49:36;13.20;;;10.57;;
38089;SDS011;23904;52.322;10.232;2023-05-07T05:52:02;12.82;;;10.85;;
38089;SDS011;23904;52.322;10.232;2023-05-07T05:54:27;12.85;;;10.75;;
38089;SDS011;23904;52.322;10.232;2023-05-07T05:56:53;13.38;;;10.88;;
38089;SDS011;23904;52.322;10.232;2023-05-07T05:59:18;13.70;;;11.25;;
38089;SDS011;23904;52.322;10.232;2023-05-07T06:01:44;13.65;;;11.40;;
38089;SDS011;23904;52.322;10.232;2023-05-07T06:04:09;14.68;;;11.02;;
38089;SDS011;23904;52.322;10.232;2023-05-07T06:06:35;14.27;;;11.55;;
38089;SDS011;23904;52.322;10.232;2023-05-07T06:09:01;15.30;;;12.82;;
38089;SDS011;23904;52.322;10.232;2023-05-07T06:11:26;16.27;;;13.90;;
38089;SDS011;23904;52.322;10.232;2023-05-07T06:13:52;18.13;;;14.13;;
38089;SDS011;23904;52.322;10.232;2023-05-07T06:16:17;17.77;;;14.07;;
38089;SDS011;23904;52.322;10.232;2023-05-07T06:18:43;15.48;;;13.10;;
38089;SDS011;23904;52.322;10.232;2023-05-07T06:21:10;17.08;;;13.90;;
38089;SDS011;23904;52.322;10.232;2023-05-07T06:23:35;16.35;;;13.40;;
38089;SDS011;23904;52.322;10.232;2023-05-07T06:26:01;17.30;;;14.88;;
38089;SDS011;23904;52.322;10.232;2023-05-07T06:28:26;20.75;;;15.63;;
38089;SDS011;23904;52.322;10.232;2023-05-07T06:30:52;20.85;;;15.57;;
38089;SDS011;23904;52.322;10.232;2023-05-07T06:33:18;18.75;;;15.75;;
38089;SDS011;23904;52.322;10.232;2023-05-07T06:35:44;17.92;;;14.75;;
38089;SDS011;23904;52.322;10.232;2023-05-07T06:38:10;16.30;;;14.07;;
38089;SDS011;23904;52.322;10.232;2023-05-07T06:40:37;18.02;;;14.52;;
38089;SDS011;23904;52.322;10.232;2023-05-07T06:43:02;17.70;;;13.18;;
38089;SDS011;23904;52.322;10.232;2023-05-07T06:45:28;15.82;;;12.50;;
38089;SDS011;23904;52.322;10.232;2023-05-07T06:47:53;15.55;;;12.77;;
38089;SDS011;23904;52.322;10.232;2023-05-07T06:50:19;17.45;;;13.23;;
38089;SDS011;23904;52.322;10.232;2023-05-07T06:52:44;14.18;;;11.98;;
38089;SDS011;23904;52.322;10.232;2023-05-07T06:55:10;13.02;;;11.07;;
38089;SDS011;23904;52.322;10.232;2023-05-07T06:57:36;12.10;;;10.80;;
38089;SDS011;23904;52.322;10.232;2023-05-07T07:00:01;11.75;;;10.10;;
38089;SDS011;23904;52.322;10.232;2023-05-07T07:02:28;11.65;;;9.98;;
38089;SDS011;23904;52.322;10.232;2023-05-07T07:04:53;12.73;;;10.07;;
38089;SDS011;23904;52.322;10.232;2023-05-07T07:07:19;13.55;;;10.05;;
38089;SDS011;23904;52.322;10.232;2023-05-07T07:09:44;12.55;;;10.18;;
38089;SDS011;23904;52.322;10.232;2023-05-07T07:12:10;12.43;;;9.68;;
38089;SDS011;23904;52.322;10.232;2023-05-07T07:14:35;13.65;;;11.05;;
38089;SDS011;23904;52.322;10.232;2023-05-07T07:17:01;12.55;;;9.45;;
38089;SDS011;23904;52.322;10.232;2023-05-07T07:19:26;11.35;;;9.27;;
38089;SDS011;23904;52.322;10.232;2023-05-07T07:21:52;13.65;;;9.88;;
38089;SDS011;23904;52.322;10.232;2023-05-07T07:24:17;12.63;;;9.55;;
38089;SDS011;23904;52.322;10.232;2023-05-07T07:26:46;10.18;;;8.10;;
38089;SDS011;23904;52.322;10.232;2023-05-07T07:29:11;12.82;;;9.65;;
38089;SDS011;23904;52.322;10.232;2023-05-07T07:31:37;14.05;;;9.35;;
38089;SDS011;23904;52.322;10.232;2023-05-07T07:34:02;11.82;;;9.40;;
38089;SDS011;23904;52.322;10.232;2023-05-07T07:36:28;15.88;;;10.35;;
38089;SDS011;23904;52.322;10.232;2023-05-07T07:38:53;10.77;;;8.45;;
38089;SDS011;23904;52.322;10.232;2023-05-07T07:41:19;10.85;;;9.38;;
38089;SDS011;23904;52.322;10.232;2023-05-07T07:43:45;11.98;;;8.82;;
38089;SDS011;23904;52.322;10.232;2023-05-07T07:46:11;10.25;;;8.57;;
38089;SDS011;23904;52.322;10.232;2023-05-07T07:48:37;10.93;;;7.97;;
38089;SDS011;23904;52.322;10.232;2023-05-07T07:51:02;14.32;;;10.07;;
38089;SDS011;23904;52.322;10.232;2023-05-07T07:53:28;13.90;;;10.25;;
38089;SDS011;23904;52.322;10.232;2023-05-07T07:55:54;12.23;;;9.82;;
38089;SDS011;23904;52.322;10.232;2023-05-07T07:58:19;14.00;;;10.75;;
38089;SDS011;23904;52.322;10.232;2023-05-07T08:00:46;13.00;;;10.52;;
38089;SDS011;23904;52.322;10.232;2023-05-07T08:03:12;13.43;;;11.20;;
38089;SDS011;23904;52.322;10.232;2023-05-07T08:05:39;13.68;;;10.77;;
38089;SDS011;23904;52.322;10.232;2023-05-07T08:08:04;15.23;;;10.75;;
38089;SDS011;23904;52.322;10.232;2023-05-07T08:10:30;13.45;;;10.45;;
38089;SDS011;23904;52.322;10.232;2023-05-07T08:12:59;15.00;;;11.18;;
38089;SDS011;23904;52.322;10.232;2023-05-07T08:15:25;13.45;;;11.18;;
38089;SDS011;23904;52.322;10.232;2023-05-07T08:17:51;12.68;;;10.43;;
38089;SDS011;23904;52.322;10.232;2023-05-07T08:20:16;14.07;;;10.77;;
38089;SDS011;23904;52.322;10.232;2023-05-07T08:22:42;13.88;;;10.35;;
38089;SDS011;23904;52.322;10.232;2023-05-07T08:25:07;13.48;;;10.95;;
38089;SDS011;23904;52.322;10.232;2023-05-07T08:27:33;14.60;;;10.23;;
38089;SDS011;23904;52.322;10.232;2023-05-07T08:29:59;13.82;;;10.27;;
38089;SDS011;23904;52.322;10.232;2023-05-07T08:32:25;12.48;;;9.05;;
38089;SDS011;23904;52.322;10.232;2023-05-07T08:34:50;14.73;;;10.23;;
38089;SDS011;23904;52.322;10.232;2023-05-07T08:37:16;13.00;;;10.45;;
38089;SDS011;23904;52.322;10.232;2023-05-07T08:39:42;14.02;;;10.90;;
38089;SDS011;23904;52.322;10.232;2023-05-07T08:42:07;14.45;;;11.32;;
38089;SDS011;23904;52.322;10.232;2023-05-07T08:44:36;14.80;;;10.32;;
38089;SDS011;23904;52.322;10.232;2023-05-07T08:47:03;16.98;;;11.57;;
38089;SDS011;23904;52.322;10.232;2023-05-07T08:49:32;14.70;;;11.20;;
38089;SDS011;23904;52.322;10.232;2023-05-07T08:51:58;14.05;;;11.15;;
38089;SDS011;23904;52.322;10.232;2023-05-07T08:54:25;15.85;;;11.88;;
38089;SDS011;23904;52.322;10.232;2023-05-07T08:56:52;18.00;;;12.98;;
38089;SDS011;23904;52.322;10.232;2023-05-07T08:59:18;18.00;;;12.77;;
38089;SDS011;23904;52.322;10.232;2023-05-07T09:01:43;15.10;;;12.57;;
38089;SDS011;23904;52.322;10.232;2023-05-07T09:04:09;16.02;;;13.05;;
38089;SDS011;23904;52.322;10.232;2023-05-07T09:06:35;19.58;;;14.75;;
38089;SDS011;23904;52.322;10.232;2023-05-07T09:09:02;21.15;;;16.13;;
38089;SDS011;23904;52.322;10.232;2023-05-07T09:11:30;17.52;;;14.00;;
38089;SDS011;23904;52.322;10.232;2023-05-07T09:13:56;20.42;;;16.88;;
38089;SDS011;23904;52.322;10.232;2023-05-07T09:16:24;24.38;;;17.88;;
38089;SDS011;23904;52.322;10.232;2023-05-07T09:18:52;17.52;;;13.02;;
38089;SDS011;23904;52.322;10.232;2023-05-07T09:21:19;19.08;;;16.05;;
38089;SDS011;23904;52.322;10.232;2023-05-07T09:23:48;18.00;;;13.75;;
38089;SDS011;23904;52.322;10.232;2023-05-07T09:26:16;18.17;;;13.90;;
38089;SDS011;23904;52.322;10.232;2023-05-07T09:28:41;15.80;;;12.73;;
38089;SDS011;23904;52.322;10.232;2023-05-07T09:31:08;17.30;;;13.00;;
38089;SDS011;23904;52.322;10.232;2023-05-07T09:33:35;25.17;;;18.40;;
38089;SDS011;23904;52.322;10.232;2023-05-07T09:36:07;15.20;;;12.77;;
38089;SDS011;23904;52.322;10.232;2023-05-07T09:38:35;26.52;;;18.75;;
38089;SDS011;23904;52.322;10.232;2023-05-07T09:41:07;17.20;;;13.95;;
38089;SDS011;23904;52.322;10.232;2023-05-07T09:43:37;15.20;;;10.82;;
38089;SDS011;23904;52.322;10.232;2023-05-07T09:46:08;14.00;;;11.00;;
38089;SDS011;23904;52.322;10.232;2023-05-07T09:48:43;18.58;;;13.05;;
38089;SDS011;23904;52.322;10.232;2023-05-07T09:51:24;33.78;;;22.88;;
38089;SDS011;23904;52.322;10.232;2023-05-07T09:53:56;15.35;;;12.00;;
38089;SDS011;23904;52.322;10.232;2023-05-07T09:56:22;22.27;;;14.23;;
38089;SDS011;23904;52.322;10.232;2023-05-07T09:58:50;17.15;;;13.30;;
38089;SDS011;23904;52.322;10.232;2023-05-07T10:01:19;19.35;;;14.98;;
38089;SDS011;23904;52.322;10.232;2023-05-07T10:03:47;16.63;;;13.10;;
38089;SDS011;23904;52.322;10.232;2023-05-07T10:06:15;20.00;;;15.27;;
38089;SDS011;23904;52.322;10.232;2023-05-07T10:08:42;16.90;;;13.18;;
38089;SDS011;23904;52.322;10.232;2023-05-07T10:11:08;28.45;;;18.02;;
38089;SDS011;23904;52.322;10.232;2023-05-07T10:13:35;24.42;;;17.15;;
38089;SDS011;23904;52.322;10.232;2023-05-07T10:16:03;19.00;;;14.93;;
38089;SDS011;23904;52.322;10.232;2023-05-07T10:18:30;19.38;;;13.88;;
38089;SDS011;23904;52.322;10.232;2023-05-07T10:21:07;12.98;;;10.23;;
38089;SDS011;23904;52.322;10.232;2023-05-07T10:23:36;31.55;;;21.13;;
38089;SDS011;23904;52.322;10.232;2023-05-07T10:26:04;23.73;;;16.92;;
38089;SDS011;23904;52.322;10.232;2023-05-07T10:28:33;38.05;;;24.05;;
38089;SDS011;23904;52.322;10.232;2023-05-07T10:31:08;13.00;;;9.68;;
38089;SDS011;23904;52.322;10.232;2023-05-07T10:34:12;13.23;;;9.80;;
38089;SDS011;23904;52.322;10.232;2023-05-07T10:36:45;12.25;;;9.70;;
38089;SDS011;23904;52.322;10.232;2023-05-07T10:39:12;11.40;;;8.77;;
38089;SDS011;23904;52.322;10.232;2023-05-07T10:41:38;9.10;;;7.00;;
38089;SDS011;23904;52.322;10.232;2023-05-07T10:44:04;10.57;;;8.88;;
38089;SDS011;23904;52.322;10.232;2023-05-07T10:46:30;9.68;;;8.00;;
38089;SDS011;23904;52.322;10.232;2023-05-07T10:51:25;10.27;;;8.10;;
38089;SDS011;23904;52.322;10.232;2023-05-07T11:01:55;9.75;;;7.60;;
38089;SDS011;23904;52.322;10.232;2023-05-07T11:04:29;9.45;;;7.88;;
38089;SDS011;23904;52.322;10.232;2023-05-07T11:15:03;12.23;;;10.18;;
38089;SDS011;23904;52.322;10.232;2023-05-07T11:17:34;29.20;;;18.40;;
38089;SDS011;23904;52.322;10.232;2023-05-07T11:20:17;8.63;;;7.60;;
38089;SDS011;23904;52.322;10.232;2023-05-07T11:22:43;9.23;;;7.28;;
38089;SDS011;23904;52.322;10.232;2023-05-07T11:25:08;22.45;;;17.02;;
38089;SDS011;23904;52.322;10.232;2023-05-07T11:27:34;13.80;;;10.68;;
38089;SDS011;23904;52.322;10.232;2023-05-07T11:29:59;22.17;;;15.15;;
38089;SDS011;23904;52.322;10.232;2023-05-07T11:32:30;9.00;;;7.22;;
38089;SDS011;23904;52.322;10.232;2023-05-07T11:34:57;21.73;;;12.60;;
38089;SDS011;23904;52.322;10.232;2023-05-07T11:37:25;8.82;;;7.00;;
38089;SDS011;23904;52.322;10.232;2023-05-07T11:40:08;16.23;;;9.95;;
38089;SDS011;23904;52.322;10.232;2023-05-07T11:42:39;6.60;;;5.70;;
38089;SDS011;23904;52.322;10.232;2023-05-07T11:45:07;12.80;;;9.80;;
38089;SDS011;23904;52.322;10.232;2023-05-07T11:47:34;8.52;;;6.10;;
38089;SDS011;23904;52.322;10.232;2023-05-07T11:50:03;7.03;;;5.65;;
38089;SDS011;23904;52.322;10.232;2023-05-07T11:52:32;7.63;;;5.85;;
38089;SDS011;23904;52.322;10.232;2023-05-07T11:54:59;6.03;;;5.00;;
38089;SDS011;23904;52.322;10.232;2023-05-07T11:57:26;6.82;;;5.97;;
38089;SDS011;23904;52.322;10.232;2023-05-07T11:59:53;6.03;;;5.07;;
38089;SDS011;23904;52.322;10.232;2023-05-07T12:02:23;12.98;;;8.38;;
38089;SDS011;23904;52.322;10.232;2023-05-07T12:04:50;7.28;;;5.70;;
38089;SDS011;23904;52.322;10.232;2023-05-07T12:07:16;5.93;;;5.00;;
38089;SDS011;23904;52.322;10.232;2023-05-07T12:09:43;6.53;;;4.78;;
38089;SDS011;23904;52.322;10.232;2023-05-07T12:12:10;20.13;;;11.50;;
38089;SDS011;23904;52.322;10.232;2023-05-07T12:14:40;9.95;;;7.40;;
38089;SDS011;23904;52.322;10.232;2023-05-07T12:17:07;10.18;;;7.18;;
38089;SDS011;23904;52.322;10.232;2023-05-07T12:19:34;10.68;;;6.55;;
38089;SDS011;23904;52.322;10.232;2023-05-07T12:22:01;7.38;;;5.32;;
38089;SDS011;23904;52.322;10.232;2023-05-07T12:24:28;7.22;;;4.95;;
38089;SDS011;23904;52.322;10.232;2023-05-07T12:26:54;7.25;;;6.38;;
38089;SDS011;23904;52.322;10.232;2023-05-07T12:29:22;9.65;;;7.30;;
38089;SDS011;23904;52.322;10.232;2023-05-07T12:31:49;8.65;;;6.75;;
38089;SDS011;23904;52.322;10.232;2023-05-07T12:34:15;12.70;;;8.95;;
38089;SDS011;23904;52.322;10.232;2023-05-07T12:36:41;7.78;;;6.20;;
38089;SDS011;23904;52.322;10.232;2023-05-07T12:39:07;10.02;;;6.60;;
38089;SDS011;23904;52.322;10.232;2023-05-07T12:44:28;10.93;;;7.65;;
38089;SDS011;23904;52.322;10.232;2023-05-07T12:46:57;9.13;;;7.65;;
38089;SDS011;23904;52.322;10.232;2023-05-07T12:49:23;14.77;;;10.98;;
38089;SDS011;23904;52.322;10.232;2023-05-07T12:51:49;9.05;;;7.05;;
38089;SDS011;23904;52.322;10.232;2023-05-07T12:54:28;17.80;;;11.80;;
38089;SDS011;23904;52.322;10.232;2023-05-07T12:57:01;14.48;;;10.27;;
38089;SDS011;23904;52.322;10.232;2023-05-07T12:59:38;10.98;;;7.57;;
38089;SDS011;23904;52.322;10.232;2023-05-07T13:02:05;9.73;;;8.68;;
38089;SDS011;23904;52.322;10.232;2023-05-07T13:04:32;13.02;;;7.85;;
38089;SDS011;23904;52.322;10.232;2023-05-07T13:06:58;9.52;;;7.88;;
38089;SDS011;23904;52.322;10.232;2023-05-07T13:09:24;8.73;;;7.70;;
38089;SDS011;23904;52.322;10.232;2023-05-07T13:11:50;10.38;;;7.63;;
38089;SDS011;23904;52.322;10.232;2023-05-07T13:14:16;12.80;;;7.07;;
38089;SDS011;23904;52.322;10.232;2023-05-07T13:16:41;8.82;;;7.40;;
38089;SDS011;23904;52.322;10.232;2023-05-07T13:19:07;29.02;;;15.38;;
38089;SDS011;23904;52.322;10.232;2023-05-07T13:21:32;10.68;;;7.13;;
38089;SDS011;23904;52.322;10.232;2023-05-07T13:23:58;16.05;;;9.50;;
38089;SDS011;23904;52.322;10.232;2023-05-07T13:26:24;22.35;;;13.98;;
38089;SDS011;23904;52.322;10.232;2023-05-07T13:28:50;18.80;;;10.25;;
38089;SDS011;23904;52.322;10.232;2023-05-07T13:31:19;10.65;;;7.65;;
38089;SDS011;23904;52.322;10.232;2023-05-07T13:33:46;9.30;;;7.07;;
38089;SDS011;23904;52.322;10.232;2023-05-07T13:36:11;8.85;;;6.47;;
38089;SDS011;23904;52.322;10.232;2023-05-07T13:38:37;8.82;;;6.93;;
38089;SDS011;23904;52.322;10.232;2023-05-07T13:41:04;15.15;;;10.20;;
38089;SDS011;23904;52.322;10.232;2023-05-07T13:43:29;11.27;;;7.70;;
38089;SDS011;23904;52.322;10.232;2023-05-07T13:45:56;8.77;;;7.22;;
38089;SDS011;23904;52.322;10.232;2023-05-07T13:48:22;8.93;;;6.93;;
38089;SDS011;23904;52.322;10.232;2023-05-07T13:50:47;9.82;;;7.00;;
38089;SDS011;23904;52.322;10.232;2023-05-07T13:53:13;7.53;;;6.22;;
38089;SDS011;23904;52.322;10.232;2023-05-07T13:55:40;11.98;;;6.57;;
38089;SDS011;23904;52.322;10.232;2023-05-07T13:58:06;12.10;;;6.97;;
38089;SDS011;23904;52.322;10.232;2023-05-07T14:00:31;10.25;;;6.90;;
38089;SDS011;23904;52.322;10.232;2023-05-07T14:02:57;10.52;;;7.30;;
38089;SDS011;23904;52.322;10.232;2023-05-07T14:05:22;8.32;;;6.40;;
38089;SDS011;23904;52.322;10.232;2023-05-07T14:07:50;10.93;;;7.13;;
38089;SDS011;23904;52.322;10.232;2023-05-07T14:10:16;9.95;;;6.32;;
38089;SDS011;23904;52.322;10.232;2023-05-07T14:12:44;7.85;;;6.20;;
38089;SDS011;23904;52.322;10.232;2023-05-07T14:15:09;8.65;;;7.07;;
38089;SDS011;23904;52.322;10.232;2023-05-07T14:17:36;10.10;;;7.15;;
38089;SDS011;23904;52.322;10.232;2023-05-07T14:20:02;10.57;;;7.85;;
38089;SDS011;23904;52.322;10.232;2023-05-07T14:22:28;9.15;;;6.32;;
38089;SDS011;23904;52.322;10.232;2023-05-07T14:24:54;8.38;;;6.28;;
38089;SDS011;23904;52.322;10.232;2023-05-07T14:27:19;9.65;;;6.85;;
38089;SDS011;23904;52.322;10.232;2023-05-07T14:29:45;10.27;;;6.68;;
38089;SDS011;23904;52.322;10.232;2023-05-07T14:32:16;7.93;;;6.45;;